This is the latest recevied weather packets stored in our database for station/object PT7RPC-10. If no packets are shown the sender has not sent any weather packets the latest 10 day(s).
| Time | Temp. | Humidity | Pressure | Rain* | Wind** | Luminosity | Snow |
|---|---|---|---|---|---|---|---|
| 1788026487 | 35° C | 47% | 1010 hPa | - | - | 0 W/m² | - |
| 1788024652 | 35° C | 48% | 1011 hPa | - | - | 0 W/m² | - |
| 1788023576 | 35° C | 48% | 1011 hPa | - | - | 0 W/m² | - |
| 1788021745 | 34.44° C | 49% | 1011 hPa | - | - | 0 W/m² | - |
| 1788019909 | 34.44° C | 49% | 1012 hPa | - | - | 0 W/m² | - |
| 1788018954 | 33.89° C | 50% | 1012 hPa | - | - | 0 W/m² | - |
| 1788017120 | 33.89° C | 50% | 1013 hPa | - | - | 0 W/m² | - |
| 1788017042 | 33.89° C | 50% | 1013 hPa | - | - | 0 W/m² | - |
| 1788015207 | 33.89° C | 50% | 1014 hPa | - | - | 0 W/m² | - |
| 1788013378 | 33.89° C | 50% | 1014 hPa | - | - | 0 W/m² | - |
| 1788011548 | 33.33° C | 51% | 1014 hPa | - | - | 0 W/m² | - |
| 1788009714 | 33.33° C | 52% | 1015 hPa | - | - | 0 W/m² | - |
| 1788007879 | 33.33° C | 53% | 1015 hPa | - | - | 0 W/m² | - |
| 1788006047 | 32.78° C | 53% | 1015 hPa | - | - | 0 W/m² | - |
| 1788004797 | 32.22° C | 55% | 1015 hPa | - | - | 0 W/m² | - |
| 1788002966 | 31.67° C | 58% | 1015 hPa | - | - | 0 W/m² | - |
| 1788001132 | 31.11° C | 60% | 1014 hPa | - | - | 0 W/m² | - |
| 1788000459 | 30.56° C | 61% | 1014 hPa | - | - | 0 W/m² | - |
| 1788000382 | 30.56° C | 60% | 1014 hPa | - | - | 0 W/m² | - |
| 1787998546 | 30° C | 62% | 1014 hPa | - | - | 0 W/m² | - |
| 1787996711 | 30° C | 61% | 1014 hPa | - | - | 0 W/m² | - |
| 1787994883 | 30.56° C | 57% | 1014 hPa | - | - | 0 W/m² | - |
| 1787993048 | 32.22° C | 55% | 1013 hPa | - | - | 0 W/m² | - |
| 1787991218 | 32.78° C | 53% | 1013 hPa | - | - | 0 W/m² | - |
| 1787989384 | 32.78° C | 53% | 1013 hPa | - | - | 0 W/m² | - |
* Rain since midnight (hover to see other rain measurements)
** Current wind speed in m/s (hover to see current wind gust speed)